Time;durP1;ratioP1;P1;durP2;ratioP2;P2;SDS_P1;SDS_P2;PMS_P1;PMS_P2;Temp;Humidity;BMP_temperature;BMP_pressure;BME280_temperature;BME280_humidity;BME280_pressure;Samples;Min_cycle;Max_cycle;Signal;HPM_P1;HPM_P2
2023/05/12 00:02:18;;;;;;;1999.90;999.90;;;26.50;91.40;;;;;;5074830;28;20044;-68
2023/05/12 00:04:46;;;;;;;1999.90;999.90;;;26.80;90.80;;;;;;5072586;28;20035;-69
2023/05/12 00:07:14;;;;;;;1999.90;999.90;;;26.60;90.60;;;;;;5074726;28;20995;-69
2023/05/12 00:09:42;;;;;;;1999.90;999.90;;;26.10;91.60;;;;;;5092845;28;20369;-69
2023/05/12 00:12:10;;;;;;;1999.90;999.90;;;26.30;91.80;;;;;;5084069;28;20032;-68
2023/05/12 00:14:38;;;;;;;1999.90;999.90;;;26.50;91.10;;;;;;5088105;28;20032;-68
2023/05/12 00:17:05;;;;;;;1999.90;999.90;;;26.70;91.60;;;;;;5091708;28;20027;-68
2023/05/12 00:19:35;;;;;;;1999.90;999.90;;;27.20;90.60;;;;;;5089061;28;20527;-69
2023/05/12 00:22:02;;;;;;;1999.90;999.90;;;27.60;90.50;;;;;;5081297;28;20101;-70
2023/05/12 00:24:30;;;;;;;1999.90;999.90;;;27.60;89.70;;;;;;5080990;28;20039;-69
2023/05/12 00:26:57;;;;;;;1999.90;999.90;;;27.90;89.80;;;;;;5083337;28;20043;-69
2023/05/12 00:29:25;;;;;;;1999.90;999.90;;;28.10;89.40;;;;;;5075750;28;20577;-68
2023/05/12 00:31:52;;;;;;;1999.90;999.90;;;28.20;88.40;;;;;;5068096;28;20459;-68
2023/05/12 00:34:19;;;;;;;1999.90;999.90;;;28.00;88.50;;;;;;5088366;28;20019;-67
2023/05/12 00:36:47;;;;;;;1999.90;999.90;;;27.80;87.80;;;;;;5086787;28;20140;-67
2023/05/12 00:39:14;;;;;;;1999.90;999.90;;;27.60;89.40;;;;;;5080786;28;20077;-67
2023/05/12 00:41:43;;;;;;;1999.90;999.90;;;27.70;89.30;;;;;;5085333;28;20063;-67
2023/05/12 00:44:12;;;;;;;1999.90;999.90;;;28.20;86.90;;;;;;5057443;28;20079;-67
2023/05/12 00:46:39;;;;;;;1999.90;999.90;;;28.10;87.00;;;;;;5086388;28;20519;-67
2023/05/12 00:49:07;;;;;;;1999.90;999.90;;;27.90;88.60;;;;;;5089359;28;20546;-68
2023/05/12 00:51:34;;;;;;;1999.90;999.90;;;28.10;87.30;;;;;;5086409;28;20054;-68
2023/05/12 00:54:02;;;;;;;1999.90;999.90;;;28.20;87.20;;;;;;5086738;28;20394;-68
2023/05/12 00:56:34;;;;;;;1999.90;999.90;;;28.50;86.50;;;;;;5091487;28;20146;-67
2023/05/12 00:59:01;;;;;;;1999.90;999.90;;;28.60;85.80;;;;;;5086901;28;20052;-67
2023/05/12 01:01:29;;;;;;;1999.90;999.90;;;28.80;85.80;;;;;;5077722;28;20043;-69
2023/05/12 01:03:56;;;;;;;1999.90;999.90;;;28.70;86.50;;;;;;5091164;28;20112;-68
2023/05/12 01:06:52;;;;;;;1999.90;999.90;;;28.80;86.30;;;;;;5092895;28;20032;-69
2023/05/12 01:09:20;;;;;;;1999.90;999.90;;;29.00;85.90;;;;;;5081972;28;20488;-69
2023/05/12 01:11:48;;;;;;;1999.90;999.90;;;29.40;84.70;;;;;;5093357;28;20517;-69
2023/05/12 01:14:16;;;;;;;1999.90;999.90;;;29.20;85.10;;;;;;5082197;28;20029;-70
2023/05/12 01:16:55;;;;;;;1999.90;999.90;;;29.40;84.90;;;;;;5086900;28;20459;-68
2023/05/12 01:19:46;;;;;;;1999.90;999.90;;;29.20;83.90;;;;;;5083364;28;20054;-68
2023/05/12 01:22:15;;;;;;;1999.90;999.90;;;28.90;85.90;;;;;;5085898;28;20059;-68
2023/05/12 01:24:57;;;;;;;1999.90;999.90;;;28.90;85.50;;;;;;5066750;28;20051;-68
2023/05/12 01:27:26;;;;;;;1999.90;999.90;;;29.10;84.20;;;;;;5076148;28;20040;-68
2023/05/12 01:29:55;;;;;;;1999.90;999.90;;;29.20;84.10;;;;;;5062368;28;20063;-66
2023/05/12 01:32:23;;;;;;;1999.90;999.90;;;29.10;85.00;;;;;;5074177;28;20453;-68
2023/05/12 01:34:51;;;;;;;1999.90;999.90;;;29.40;84.30;;;;;;5087528;28;20067;-66
2023/05/12 01:37:18;;;;;;;1999.90;999.90;;;29.50;83.20;;;;;;5084859;28;20035;-70
2023/05/12 01:39:46;;;;;;;1999.90;999.90;;;29.60;82.70;;;;;;5082668;28;21525;-70
2023/05/12 01:42:17;;;;;;;1999.90;999.90;;;29.60;83.30;;;;;;5092012;28;20036;-70
2023/05/12 01:44:45;;;;;;;1999.90;999.90;;;29.80;82.10;;;;;;5078714;28;20039;-70
2023/05/12 01:47:14;;;;;;;1999.90;999.90;;;29.70;83.00;;;;;;5085015;28;20028;-68
2023/05/12 01:49:42;;;;;;;1999.90;999.90;;;29.80;83.80;;;;;;5080314;28;20055;-68
2023/05/12 01:52:09;;;;;;;1999.90;999.90;;;30.00;83.00;;;;;;5093189;28;20136;-67
2023/05/12 01:54:37;;;;;;;1999.90;999.90;;;30.00;81.80;;;;;;5083129;28;20146;-67
2023/05/12 01:57:05;;;;;;;1999.90;999.90;;;29.90;81.80;;;;;;5057753;28;20024;-67
2023/05/12 01:59:32;;;;;;;1999.90;999.90;;;30.00;83.40;;;;;;5068643;28;20043;-67
2023/05/12 02:02:00;;;;;;;1999.90;999.90;;;30.10;81.80;;;;;;5067725;28;20048;-68
2023/05/12 02:04:31;;;;;;;1999.90;999.90;;;30.00;80.30;;;;;;5068966;28;20032;-68
2023/05/12 02:06:58;;;;;;;1999.90;999.90;;;29.60;81.10;;;;;;5083523;28;20032;-68
2023/05/12 02:09:26;;;;;;;1999.90;999.90;;;29.70;82.90;;;;;;5084885;28;20147;-68
2023/05/12 02:11:53;;;;;;;1999.90;999.90;;;29.80;81.70;;;;;;5082654;28;20027;-66
2023/05/12 02:14:21;;;;;;;1999.90;999.90;;;29.40;82.00;;;;;;5089142;28;20024;-68
2023/05/12 02:16:51;;;;;;;1999.90;999.90;;;29.50;81.70;;;;;;5084825;28;20034;-68
2023/05/12 02:19:21;;;;;;;1999.90;999.90;;;29.40;82.20;;;;;;5087265;28;20032;-68
2023/05/12 02:21:49;;;;;;;1999.90;999.90;;;29.40;82.50;;;;;;5070332;28;20485;-66
2023/05/12 02:24:16;;;;;;;1999.90;999.90;;;29.50;82.00;;;;;;5083033;28;20032;-67
2023/05/12 02:26:44;;;;;;;1999.90;999.90;;;29.30;82.00;;;;;;5081218;28;20035;-67
2023/05/12 02:29:11;;;;;;;1999.90;999.90;;;29.00;81.30;;;;;;5084564;28;20028;-67
2023/05/12 02:31:39;;;;;;;1999.90;999.90;;;28.70;82.40;;;;;;5089633;28;20687;-68
2023/05/12 02:34:06;;;;;;;1999.90;999.90;;;28.70;83.20;;;;;;5084015;28;20759;-68
2023/05/12 02:36:34;;;;;;;1999.90;999.90;;;28.70;82.10;;;;;;5086426;28;20477;-69
2023/05/12 02:39:01;;;;;;;1999.90;999.90;;;28.80;83.20;;;;;;5085266;28;20423;-64
2023/05/12 02:41:28;;;;;;;1999.90;999.90;;;28.90;82.80;;;;;;5093103;28;20063;-67
2023/05/12 02:43:56;;;;;;;1999.90;999.90;;;28.90;81.50;;;;;;5085820;28;22701;-67
2023/05/12 02:46:23;;;;;;;1999.90;999.90;;;28.80;81.50;;;;;;5090973;28;20397;-67
2023/05/12 02:48:51;;;;;;;1999.90;999.90;;;28.60;82.00;;;;;;5087691;28;20038;-67
2023/05/12 02:51:18;;;;;;;1999.90;999.90;;;28.50;80.80;;;;;;5093399;28;20036;-67
2023/05/12 02:53:45;;;;;;;1999.90;999.90;;;28.40;81.50;;;;;;5090403;28;20024;-68
2023/05/12 02:56:13;;;;;;;1999.90;999.90;;;28.30;80.80;;;;;;5091835;28;20039;-68
2023/05/12 02:58:41;;;;;;;1999.90;999.90;;;28.20;82.10;;;;;;5083582;28;20125;-68
2023/05/12 03:01:08;;;;;;;1999.90;999.90;;;28.20;82.30;;;;;;5089104;28;20048;-67
2023/05/12 03:03:35;;;;;;;1999.90;999.90;;;28.20;81.90;;;;;;5083638;28;20129;-68
2023/05/12 03:06:03;;;;;;;1999.90;999.90;;;28.20;81.80;;;;;;5096194;28;20495;-68
2023/05/12 03:08:30;;;;;;;1999.90;999.90;;;28.20;81.40;;;;;;5091448;28;20027;-67
2023/05/12 03:10:58;;;;;;;1999.90;999.90;;;28.00;81.40;;;;;;5091548;28;20421;-67
2023/05/12 03:13:25;;;;;;;1999.90;999.90;;;27.90;81.20;;;;;;5091428;28;20809;-67
2023/05/12 03:15:53;;;;;;;1999.90;999.90;;;27.80;80.70;;;;;;5087384;28;20028;-67
2023/05/12 03:18:20;;;;;;;1999.90;999.90;;;27.70;81.20;;;;;;5081943;28;20031;-68
2023/05/12 03:20:48;;;;;;;1999.90;999.90;;;27.60;82.70;;;;;;5085995;28;20028;-67
2023/05/12 03:23:15;;;;;;;1999.90;999.90;;;27.50;80.10;;;;;;5079630;28;20482;-67
2023/05/12 03:25:43;;;;;;;1999.90;999.90;;;27.10;79.90;;;;;;5087899;28;20028;-67
2023/05/12 03:28:11;;;;;;;1999.90;999.90;;;26.70;80.30;;;;;;5092666;28;20024;-66
2023/05/12 03:30:39;;;;;;;1999.90;999.90;;;26.20;81.70;;;;;;5083136;28;20024;-66
2023/05/12 03:33:06;;;;;;;1999.90;999.90;;;26.10;81.80;;;;;;5084174;28;20039;-67
2023/05/12 03:35:34;;;;;;;1999.90;999.90;;;25.80;82.50;;;;;;5078076;28;20378;-67
2023/05/12 03:38:05;;;;;;;1999.90;999.90;;;25.60;83.10;;;;;;5085526;28;20120;-68
2023/05/12 03:40:32;;;;;;;1999.90;999.90;;;25.60;83.10;;;;;;5088781;28;20028;-67
2023/05/12 03:43:00;;;;;;;1999.90;999.90;;;25.50;81.80;;;;;;5089182;28;20522;-67
2023/05/12 03:45:29;;;;;;;1999.90;999.90;;;25.20;81.50;;;;;;5079836;28;20020;-67
2023/05/12 03:47:56;;;;;;;1999.90;999.90;;;24.90;82.90;;;;;;5074375;28;20038;-66
2023/05/12 03:50:24;;;;;;;1999.90;999.90;;;24.70;83.80;;;;;;5087169;28;20024;-67
2023/05/12 03:52:54;;;;;;;1999.90;999.90;;;24.50;84.30;;;;;;5089871;28;20024;-66
2023/05/12 03:55:22;;;;;;;1999.90;999.90;;;24.40;82.60;;;;;;5083029;28;20043;-66
2023/05/12 03:57:49;;;;;;;1999.90;999.90;;;24.40;83.50;;;;;;5095788;28;20043;-66
2023/05/12 04:00:18;;;;;;;1999.90;999.90;;;24.30;84.30;;;;;;5079426;28;20051;-66
2023/05/12 04:02:45;;;;;;;1999.90;999.90;;;24.30;84.90;;;;;;5091657;28;20028;-66
2023/05/12 04:05:12;;;;;;;1999.90;999.90;;;24.30;86.00;;;;;;5084844;28;20072;-67
2023/05/12 04:07:40;;;;;;;1999.90;999.90;;;24.30;85.10;;;;;;5093066;28;20482;-66
2023/05/12 04:10:08;;;;;;;1999.90;999.90;;;24.20;85.30;;;;;;5073911;28;20077;-66
2023/05/12 04:12:35;;;;;;;1999.90;999.90;;;23.90;85.20;;;;;;5088567;28;20067;-65
2023/05/12 04:15:03;;;;;;;1999.90;999.90;;;23.80;84.10;;;;;;5080962;28;20051;-66
2023/05/12 04:17:30;;;;;;;1999.90;999.90;;;23.60;85.30;;;;;;5066272;28;20157;-66
2023/05/12 04:19:59;;;;;;;1999.90;999.90;;;23.50;85.10;;;;;;5079568;28;20036;-67
2023/05/12 04:22:27;;;;;;;1999.90;999.90;;;23.40;86.00;;;;;;5083487;28;20504;-67
2023/05/12 04:24:54;;;;;;;1999.90;999.90;;;23.40;86.10;;;;;;5079896;28;20114;-67
2023/05/12 04:27:21;;;;;;;1999.90;999.90;;;23.20;87.00;;;;;;5083028;28;20111;-68
2023/05/12 04:29:49;;;;;;;1999.90;999.90;;;23.20;86.90;;;;;;5076660;28;20601;-67
2023/05/12 04:32:17;;;;;;;1999.90;999.90;;;23.10;86.30;;;;;;5085960;28;20032;-67
2023/05/12 04:34:44;;;;;;;1999.90;999.90;;;23.10;86.20;;;;;;5084586;28;20407;-68
2023/05/12 04:37:12;;;;;;;1999.90;999.90;;;23.00;84.80;;;;;;5089870;28;20020;-67
2023/05/12 04:39:39;;;;;;;1999.90;999.90;;;23.00;85.70;;;;;;5086330;28;20019;-67
2023/05/12 04:42:07;;;;;;;1999.90;999.90;;;22.90;84.40;;;;;;5094219;28;20107;-67
2023/05/12 04:44:35;;;;;;;1999.90;999.90;;;22.90;86.00;;;;;;5085602;28;20104;-66
2023/05/12 04:47:03;;;;;;;1999.90;999.90;;;22.90;82.70;;;;;;5084795;28;20060;-66
2023/05/12 04:49:30;;;;;;;1999.90;999.90;;;22.80;82.60;;;;;;5081844;28;20466;-65
2023/05/12 04:51:57;;;;;;;1999.90;999.90;;;22.80;83.30;;;;;;5088318;28;20028;-66
2023/05/12 04:54:25;;;;;;;1999.90;999.90;;;22.70;83.30;;;;;;5085953;28;20042;-65
2023/05/12 04:56:52;;;;;;;1999.90;999.90;;;22.70;84.20;;;;;;5087832;28;20028;-67
2023/05/12 04:59:20;;;;;;;1999.90;999.90;;;22.60;84.70;;;;;;5086093;28;20630;-67
2023/05/12 05:01:51;;;;;;;1999.90;999.90;;;22.60;83.50;;;;;;5087891;28;20123;-66
2023/05/12 05:04:19;;;;;;;1999.90;999.90;;;22.60;84.40;;;;;;5086178;28;20056;-65
2023/05/12 05:06:46;;;;;;;1999.90;999.90;;;22.50;85.60;;;;;;5089100;28;20036;-66
2023/05/12 05:09:13;;;;;;;1999.90;999.90;;;22.50;86.10;;;;;;5083090;28;22179;-66
2023/05/12 05:11:40;;;;;;;1999.90;999.90;;;22.40;85.50;;;;;;5088572;28;20036;-67
2023/05/12 05:14:08;;;;;;;1999.90;999.90;;;22.40;85.90;;;;;;5079737;28;20086;-66
2023/05/12 05:16:35;;;;;;;1999.90;999.90;;;22.40;85.90;;;;;;5081136;28;20020;-66
2023/05/12 05:19:03;;;;;;;1999.90;999.90;;;22.40;86.60;;;;;;5090888;28;20086;-67
2023/05/12 05:21:31;;;;;;;1999.90;999.90;;;22.40;85.20;;;;;;5073110;28;20032;-67
2023/05/12 05:23:58;;;;;;;1999.90;999.90;;;22.40;84.50;;;;;;5077755;28;20068;-66
2023/05/12 05:26:26;;;;;;;1999.90;999.90;;;22.40;85.20;;;;;;5078680;28;20482;-67
2023/05/12 05:28:54;;;;;;;1999.90;999.90;;;22.40;85.50;;;;;;5081626;28;20070;-67
2023/05/12 05:31:22;;;;;;;1999.90;999.90;;;22.30;85.80;;;;;;5070023;28;20948;-67
2023/05/12 05:33:49;;;;;;;1999.90;999.90;;;22.30;86.00;;;;;;5080842;28;20049;-66
2023/05/12 05:36:17;;;;;;;1999.90;999.90;;;22.30;85.80;;;;;;5086682;28;20043;-66
2023/05/12 05:38:45;;;;;;;1999.90;999.90;;;22.30;86.40;;;;;;5071126;28;21150;-66
2023/05/12 05:41:13;;;;;;;1999.90;999.90;;;22.30;86.10;;;;;;5082817;28;20061;-67
2023/05/12 05:43:40;;;;;;;1999.90;999.90;;;22.30;86.40;;;;;;5089786;28;20024;-66
2023/05/12 05:46:08;;;;;;;1999.90;999.90;;;22.40;85.80;;;;;;5079689;28;20114;-66
2023/05/12 05:48:38;;;;;;;1999.90;999.90;;;22.40;85.50;;;;;;5083226;28;20668;-68
2023/05/12 05:51:05;;;;;;;1999.90;999.90;;;22.40;86.40;;;;;;5077886;28;20060;-67
2023/05/12 05:53:33;;;;;;;1999.90;999.90;;;22.50;87.60;;;;;;5087867;28;20089;-66
2023/05/12 05:56:01;;;;;;;1999.90;999.90;;;22.60;84.80;;;;;;5091236;28;20028;-67
2023/05/12 05:58:28;;;;;;;1999.90;999.90;;;22.60;86.00;;;;;;5068471;28;20073;-67
2023/05/12 06:00:55;;;;;;;1999.90;999.90;;;22.70;87.50;;;;;;5083292;28;20028;-68
2023/05/12 06:03:23;;;;;;;1999.90;999.90;;;22.80;86.10;;;;;;5072692;28;20081;-67
2023/05/12 06:05:51;;;;;;;1999.90;999.90;;;22.80;86.60;;;;;;5093952;28;21578;-66
2023/05/12 06:08:18;;;;;;;1999.90;999.90;;;22.80;87.30;;;;;;5089743;28;20119;-66
2023/05/12 06:10:45;;;;;;;1999.90;999.90;;;22.90;86.10;;;;;;5089769;28;20028;-66
2023/05/12 06:13:13;;;;;;;1999.90;999.90;;;23.00;87.20;;;;;;5091541;28;20088;-67
2023/05/12 06:15:40;;;;;;;1999.90;999.90;;;23.00;85.00;;;;;;5091720;28;20028;-66
2023/05/12 06:18:07;;;;;;;1999.90;999.90;;;23.00;85.10;;;;;;5090158;28;20020;-66
2023/05/12 06:20:35;;;;;;;1999.90;999.90;;;22.90;85.30;;;;;;5085168;28;20051;-66
2023/05/12 06:23:03;;;;;;;1999.90;999.90;;;22.90;85.20;;;;;;5090926;28;20119;-67
2023/05/12 06:25:32;;;;;;;1999.90;999.90;;;22.90;85.60;;;;;;5083834;28;20024;-68
2023/05/12 06:27:59;;;;;;;1999.90;999.90;;;22.80;85.90;;;;;;5093968;28;20393;-67
2023/05/12 06:30:26;;;;;;;1999.90;999.90;;;22.70;85.90;;;;;;5076422;28;20024;-67
2023/05/12 06:32:54;;;;;;;1999.90;999.90;;;22.50;86.10;;;;;;5098498;28;20112;-66
2023/05/12 06:35:22;;;;;;;1999.90;999.90;;;22.40;86.20;;;;;;5086000;28;20069;-67
2023/05/12 06:37:49;;;;;;;1999.90;999.90;;;22.20;86.40;;;;;;5068620;28;20027;-68
2023/05/12 06:40:17;;;;;;;1999.90;999.90;;;22.00;86.90;;;;;;5089008;28;20086;-67
2023/05/12 06:42:44;;;;;;;1999.90;999.90;;;21.80;87.30;;;;;;5085825;28;20436;-67
2023/05/12 06:45:12;;;;;;;1999.90;999.90;;;21.60;87.70;;;;;;5088449;28;20020;-66
2023/05/12 06:47:39;;;;;;;1999.90;999.90;;;21.40;88.00;;;;;;5090495;28;20028;-67
2023/05/12 06:50:08;;;;;;;1999.90;999.90;;;21.30;88.30;;;;;;5087535;28;20028;-68
2023/05/12 06:52:36;;;;;;;1999.90;999.90;;;21.20;88.50;;;;;;5093431;28;20020;-69
2023/05/12 06:55:04;;;;;;;1999.90;999.90;;;21.00;89.50;;;;;;5090874;28;20077;-69
2023/05/12 06:57:32;;;;;;;1999.90;999.90;;;20.80;90.10;;;;;;5089371;28;20031;-70
2023/05/12 07:00:01;;;;;;;1999.90;999.90;;;20.70;91.00;;;;;;5082731;28;20051;-66
2023/05/12 07:02:29;;;;;;;1999.90;999.90;;;20.50;90.70;;;;;;5094604;28;20054;-67
2023/05/12 07:04:57;;;;;;;1999.90;999.90;;;20.40;90.80;;;;;;5093964;28;20466;-68
2023/05/12 07:07:24;;;;;;;1999.90;999.90;;;20.30;91.10;;;;;;5082902;28;20028;-69
2023/05/12 07:09:52;;;;;;;1999.90;999.90;;;20.10;91.70;;;;;;5093945;28;20366;-67
2023/05/12 07:12:19;;;;;;;1999.90;999.90;;;20.00;92.50;;;;;;5081840;28;20052;-69
2023/05/12 07:14:46;;;;;;;1999.90;999.90;;;19.80;92.90;;;;;;5088162;28;20029;-68
2023/05/12 07:17:14;;;;;;;1999.90;999.90;;;19.60;93.10;;;;;;5098562;28;20028;-67
2023/05/12 07:19:42;;;;;;;1999.90;999.90;;;19.50;93.50;;;;;;5089915;28;20031;-67
2023/05/12 07:22:09;;;;;;;1999.90;999.90;;;19.30;93.80;;;;;;5088334;28;20181;-68
2023/05/12 07:24:37;;;;;;;1999.90;999.90;;;19.20;94.20;;;;;;5094012;28;20081;-67
2023/05/12 07:27:05;;;;;;;1999.90;999.90;;;19.10;94.60;;;;;;5088283;28;20040;-68
2023/05/12 07:29:33;;;;;;;1999.90;999.90;;;19.00;94.50;;;;;;5093808;28;20376;-68
2023/05/12 07:32:00;;;;;;;1999.90;999.90;;;19.00;94.90;;;;;;5099109;28;20020;-68
2023/05/12 07:34:27;;;;;;;1999.90;999.90;;;19.00;94.90;;;;;;5078668;28;20027;-67
2023/05/12 07:36:55;;;;;;;1999.90;999.90;;;18.90;95.10;;;;;;5101889;28;20031;-68
2023/05/12 07:39:23;;;;;;;1999.90;999.90;;;18.70;95.40;;;;;;5097428;28;20109;-67
2023/05/12 07:41:52;;;;;;;1999.90;999.90;;;18.60;95.70;;;;;;5072672;28;20402;-68
2023/05/12 07:44:20;;;;;;;1999.90;999.90;;;18.50;96.00;;;;;;5094321;28;20032;-67
2023/05/12 07:46:47;;;;;;;1999.90;999.90;;;18.40;96.10;;;;;;5095299;28;20063;-67
2023/05/12 07:49:15;;;;;;;1999.90;999.90;;;18.30;96.50;;;;;;5094838;28;20028;-67
2023/05/12 07:51:42;;;;;;;1999.90;999.90;;;18.30;96.80;;;;;;5103188;28;20032;-67
2023/05/12 07:54:09;;;;;;;1999.90;999.90;;;18.20;97.00;;;;;;5092722;28;20520;-67
2023/05/12 07:56:37;;;;;;;1999.90;999.90;;;18.10;97.20;;;;;;5091746;28;20118;-68
2023/05/12 07:59:05;;;;;;;1999.90;999.90;;;18.00;97.30;;;;;;5083270;28;20086;-69
2023/05/12 08:01:33;;;;;;;1999.90;999.90;;;18.00;97.60;;;;;;5091855;28;20027;-68
2023/05/12 08:04:01;;;;;;;1999.90;999.90;;;18.00;98.00;;;;;;5080015;28;20098;-67
2023/05/12 08:06:28;;;;;;;1999.90;999.90;;;17.90;98.20;;;;;;5087679;28;20024;-67
2023/05/12 08:08:57;;;;;;;1999.90;999.90;;;17.80;98.30;;;;;;5094348;28;20036;-67
2023/05/12 08:11:25;;;;;;;1999.90;999.90;;;17.80;98.80;;;;;;5103583;28;20434;-67
2023/05/12 08:13:53;;;;;;;1999.90;999.90;;;17.70;99.10;;;;;;5097066;28;20038;-67
2023/05/12 08:16:20;;;;;;;1999.90;999.90;;;17.60;99.50;;;;;;5086802;28;20442;-67
2023/05/12 08:18:47;;;;;;;1999.90;999.90;;;17.60;99.70;;;;;;5093163;28;20027;-68
2023/05/12 08:21:15;;;;;;;1999.90;999.90;;;17.40;99.90;;;;;;5086164;28;20032;-67
2023/05/12 08:23:43;;;;;;;1999.90;999.90;;;17.40;99.90;;;;;;5082849;28;20029;-67
2023/05/12 08:26:13;;;;;;;1999.90;999.90;;;17.30;99.90;;;;;;5088780;28;20031;-68
2023/05/12 08:28:40;;;;;;;1999.90;999.90;;;17.20;99.90;;;;;;5072615;28;20028;-68
2023/05/12 08:31:07;;;;;;;1999.90;999.90;;;17.10;99.90;;;;;;5087784;28;20520;-68
2023/05/12 08:33:36;;;;;;;1999.90;999.90;;;17.00;99.90;;;;;;5091009;28;20045;-68
2023/05/12 08:36:05;;;;;;;1999.90;999.90;;;17.00;99.90;;;;;;5087354;28;20024;-67
2023/05/12 08:38:33;;;;;;;1999.90;999.90;;;17.00;99.90;;;;;;5093713;28;20032;-67
2023/05/12 08:41:06;;;;;;;1999.90;999.90;;;16.90;99.90;;;;;;5087599;28;20035;-68
2023/05/12 08:43:51;;;;;;;1999.90;999.90;;;16.90;99.90;;;;;;5088129;28;20031;-68
2023/05/12 08:46:19;;;;;;;1999.90;999.90;;;16.80;99.90;;;;;;5088030;28;20028;-67
2023/05/12 08:48:49;;;;;;;1999.90;999.90;;;16.80;99.90;;;;;;5090924;28;20032;-68
2023/05/12 08:51:18;;;;;;;1999.90;999.90;;;16.70;99.90;;;;;;5085692;28;20409;-66
2023/05/12 08:53:48;;;;;;;1999.90;999.90;;;16.70;99.90;;;;;;5092827;28;20028;-67
2023/05/12 08:56:21;;;;;;;1999.90;999.90;;;16.60;99.90;;;;;;5093259;28;20101;-67
2023/05/12 08:58:48;;;;;;;1999.90;999.90;;;16.60;99.90;;;;;;5093689;28;20501;-68
2023/05/12 09:01:17;;;;;;;1999.90;999.90;;;16.60;99.90;;;;;;5088160;28;20055;-68
2023/05/12 09:03:47;;;;;;;1999.90;999.90;;;16.70;99.90;;;;;;5089955;28;20388;-68
2023/05/12 09:06:15;;;;;;;1999.90;999.90;;;16.70;99.90;;;;;;5091972;28;20036;-67
2023/05/12 09:08:43;;;;;;;1999.90;999.90;;;16.80;99.90;;;;;;5092553;28;20021;-68
2023/05/12 09:11:12;;;;;;;1999.90;999.90;;;16.90;99.90;;;;;;5093255;28;20046;-68
2023/05/12 09:13:46;;;;;;;1999.90;999.90;;;17.00;99.90;;;;;;5096589;28;20066;-68
2023/05/12 09:16:17;;;;;;;1999.90;999.90;;;17.00;99.90;;;;;;5094297;28;20042;-68
2023/05/12 09:18:53;;;;;;;1999.90;999.90;;;17.10;99.90;;;;;;5094703;28;20035;-68
2023/05/12 09:21:20;;;;;;;;;;;17.10;99.90;;;;;;5091041;28;20051;-68
2023/05/12 09:24:04;;;;;;;1999.90;999.90;;;17.10;99.90;;;;;;5093588;28;19908;-68
2023/05/12 09:26:44;;;;;;;1999.90;999.90;;;17.10;99.90;;;;;;5095138;28;20032;-67
2023/05/12 09:29:11;;;;;;;1999.90;999.90;;;17.00;99.90;;;;;;5092893;28;20486;-67
2023/05/12 09:31:39;;;;;;;1999.90;999.90;;;17.00;99.90;;;;;;5094225;28;20040;-66
2023/05/12 09:34:10;;;;;;;1999.90;999.90;;;16.90;99.90;;;;;;5086994;28;20482;-68
2023/05/12 09:36:37;;;;;;;1999.90;999.90;;;16.90;99.90;;;;;;5094577;28;20051;-67
2023/05/12 09:39:06;;;;;;;1999.90;999.90;;;16.90;99.90;;;;;;5085100;28;20579;-67
2023/05/12 09:41:38;;;;;;;1999.90;999.90;;;16.90;99.90;;;;;;5092110;28;20036;-68
2023/05/12 09:44:07;;;;;;;1999.90;999.90;;;16.80;99.90;;;;;;5083172;28;20168;-67
2023/05/12 09:46:35;;;;;;;1999.90;999.90;;;16.80;99.90;;;;;;5093145;28;20102;-66
2023/05/12 09:49:02;;;;;;;1999.90;999.90;;;16.70;99.90;;;;;;5090790;28;20115;-68
2023/05/12 09:51:31;;;;;;;1999.90;999.90;;;16.70;99.90;;;;;;5093194;28;20028;-68
2023/05/12 09:53:59;;;;;;;1999.90;999.90;;;16.70;99.90;;;;;;5086032;28;20037;-66
2023/05/12 09:56:32;;;;;;;1999.90;999.90;;;16.70;99.90;;;;;;5106498;28;20031;-67
2023/05/12 09:59:02;;;;;;;;;;;16.70;99.90;;;;;;5086946;28;20036;-66
2023/05/12 10:01:30;;;;;;;1999.90;999.90;;;16.70;99.90;;;;;;5085414;28;19981;-67
2023/05/12 10:03:58;;;;;;;1999.90;999.90;;;16.60;99.90;;;;;;5097294;28;20070;-68
2023/05/12 10:06:37;;;;;;;1999.90;999.90;;;16.60;99.90;;;;;;5093866;28;20412;-67
2023/05/12 10:09:32;;;;;;;1999.90;999.90;;;16.60;99.90;;;;;;5081438;28;20063;-67
2023/05/12 10:12:03;;;;;;;1999.90;999.90;;;16.50;99.90;;;;;;5085856;28;20107;-67
2023/05/12 10:14:31;;;;;;;1999.90;999.90;;;16.50;99.90;;;;;;5087183;28;20031;-68
2023/05/12 10:17:00;;;;;;;1999.90;999.90;;;16.50;99.90;;;;;;5090999;28;20028;-68
2023/05/12 10:19:29;;;;;;;1999.90;999.90;;;16.40;99.90;;;;;;5088893;28;20181;-68
2023/05/12 10:21:57;;;;;;;1999.90;999.90;;;16.30;99.90;;;;;;5087631;28;20031;-68
2023/05/12 10:24:26;;;;;;;1999.90;999.90;;;16.30;99.90;;;;;;5090805;28;20093;-67
2023/05/12 10:26:58;;;;;;;1999.90;999.90;;;16.20;99.90;;;;;;5085688;28;20032;-68
2023/05/12 10:29:28;;;;;;;1999.90;999.90;;;16.20;99.90;;;;;;5091334;28;20040;-68
2023/05/12 10:32:02;;;;;;;1999.90;999.90;;;16.20;99.90;;;;;;5095130;28;20481;-66
2023/05/12 10:34:34;;;;;;;1999.90;999.90;;;16.10;99.90;;;;;;5091903;28;20016;-66
2023/05/12 10:37:07;;;;;;;1999.90;999.90;;;16.00;99.90;;;;;;5105111;28;20024;-67
2023/05/12 10:39:35;;;;;;;1999.90;999.90;;;16.00;99.90;;;;;;5102134;28;20068;-67
2023/05/12 10:42:09;;;;;;;1999.90;999.90;;;15.90;99.90;;;;;;5098469;28;20089;-67
2023/05/12 10:44:48;;;;;;;1999.90;999.90;;;15.80;99.90;;;;;;5098469;28;20032;-67
2023/05/12 10:47:16;;;;;;;1999.90;999.90;;;15.80;99.90;;;;;;5095556;28;20474;-67
2023/05/12 10:49:43;;;;;;;1999.90;999.90;;;15.80;99.90;;;;;;5092986;28;20027;-67
2023/05/12 10:52:19;;;;;;;1999.90;999.90;;;15.70;99.90;;;;;;5100061;28;20405;-67
2023/05/12 10:54:47;;;;;;;1999.90;999.90;;;15.70;99.90;;;;;;5091344;28;20519;-67
2023/05/12 10:57:19;;;;;;;1999.90;999.90;;;15.60;99.90;;;;;;5097050;28;20032;-67
2023/05/12 10:59:51;;;;;;;1999.90;999.90;;;15.60;99.90;;;;;;5086193;28;20051;-66
2023/05/12 11:02:23;;;;;;;1999.90;999.90;;;15.50;99.90;;;;;;5096935;28;20043;-68
2023/05/12 11:04:58;;;;;;;1999.90;999.90;;;15.50;99.90;;;;;;5090901;28;20038;-68
2023/05/12 11:07:31;;;;;;;1999.90;999.90;;;15.50;99.90;;;;;;5098149;28;20113;-66
2023/05/12 11:10:00;;;;;;;1999.90;999.90;;;15.50;99.90;;;;;;5092775;28;20077;-67
2023/05/12 11:12:31;;;;;;;1999.90;999.90;;;15.50;99.90;;;;;;5101136;28;20098;-66
2023/05/12 11:15:03;;;;;;;1999.90;999.90;;;15.50;99.90;;;;;;5092528;28;20034;-66
2023/05/12 11:17:31;;;;;;;1999.90;999.90;;;15.50;99.90;;;;;;5104478;28;20028;-67
2023/05/12 11:20:01;;;;;;;1999.90;999.90;;;15.50;99.90;;;;;;5091570;28;20435;-66
2023/05/12 11:22:28;;;;;;;1999.90;999.90;;;15.50;99.90;;;;;;5098329;28;20075;-67
2023/05/12 11:24:56;;;;;;;1999.90;999.90;;;15.50;99.90;;;;;;5086648;28;20027;-66
2023/05/12 11:27:24;;;;;;;1999.90;999.90;;;15.50;99.90;;;;;;5090777;28;20024;-67
2023/05/12 11:30:00;;;;;;;1999.90;999.90;;;15.40;99.90;;;;;;5091740;28;20028;-67
2023/05/12 11:32:28;;;;;;;;;;;15.40;99.90;;;;;;5098018;28;20500;-67
2023/05/12 11:34:57;;;;;;;1999.90;999.90;;;15.40;99.90;;;;;;5092827;28;19995;-67
2023/05/12 11:37:25;;;;;;;1999.90;999.90;;;15.30;99.90;;;;;;5090989;28;20148;-68
2023/05/12 11:39:52;;;;;;;1999.90;999.90;;;15.30;99.90;;;;;;5088432;28;20553;-68
2023/05/12 11:42:19;;;;;;;1999.90;999.90;;;15.20;99.90;;;;;;5090201;28;20040;-67
2023/05/12 11:44:50;;;;;;;1999.90;999.90;;;15.20;99.90;;;;;;5085278;28;20107;-66
2023/05/12 11:47:19;;;;;;;1999.90;999.90;;;15.10;99.90;;;;;;5086917;28;20043;-67
2023/05/12 11:49:54;;;;;;;1999.90;999.90;;;15.00;99.90;;;;;;5091797;28;20036;-67
2023/05/12 11:52:24;;;;;;;1999.90;999.90;;;14.90;99.90;;;;;;5092539;28;20020;-68
2023/05/12 11:54:59;;;;;;;1999.90;999.90;;;14.80;99.90;;;;;;5081231;28;20036;-67
2023/05/12 11:57:34;;;;;;;1999.90;999.90;;;14.80;99.90;;;;;;5093365;28;20384;-67
2023/05/12 12:00:05;;;;;;;1999.90;999.90;;;14.80;99.90;;;;;;5093078;28;20131;-68
2023/05/12 12:02:35;;;;;;;1999.90;999.90;;;14.70;99.90;;;;;;5101349;28;20498;-68
2023/05/12 12:05:02;;;;;;;1999.90;999.90;;;14.70;99.90;;;;;;5093818;28;20033;-67
2023/05/12 12:07:35;;;;;;;1999.90;999.90;;;14.70;99.90;;;;;;5095177;28;20024;-67
2023/05/12 12:10:16;;;;;;;1999.90;999.90;;;14.60;99.90;;;;;;5087370;28;20513;-67